createdAt,value
2018-03-30T00:00:11.189Z,1.10
2018-03-30T00:02:38.690Z,1.63
2018-03-30T00:05:06.212Z,2.10
2018-03-30T00:07:33.697Z,1.97
2018-03-30T00:10:01.198Z,1.30
2018-03-30T00:12:28.690Z,1.93
2018-03-30T00:14:56.988Z,1.50
2018-03-30T00:17:24.481Z,2.03
2018-03-30T00:19:51.992Z,1.23
2018-03-30T00:22:20.275Z,1.67
2018-03-30T00:24:48.537Z,4.50
2018-03-30T00:27:16.047Z,3.07
2018-03-30T00:29:43.528Z,5.07
2018-03-30T00:32:11.046Z,5.03
2018-03-30T00:34:38.562Z,3.97
2018-03-30T00:37:06.050Z,5.17
2018-03-30T00:39:33.600Z,3.83
2018-03-30T00:42:01.070Z,2.93
2018-03-30T00:44:28.582Z,3.23
2018-03-30T00:46:56.064Z,3.97
2018-03-30T00:49:23.564Z,1.90
2018-03-30T00:51:51.070Z,2.93
2018-03-30T00:54:19.317Z,2.93
2018-03-30T00:56:46.848Z,2.20
2018-03-30T00:59:14.334Z,0.93
2018-03-30T01:01:41.846Z,0.80
2018-03-30T01:04:09.362Z,1.73
2018-03-30T01:06:36.871Z,1.30
2018-03-30T01:09:04.400Z,1.53
2018-03-30T01:11:31.914Z,1.40
2018-03-30T01:13:59.415Z,4.30
2018-03-30T01:16:26.933Z,2.00
2018-03-30T01:18:54.431Z,1.97
2018-03-30T01:21:21.947Z,1.23
2018-03-30T01:23:49.455Z,1.67
2018-03-30T01:26:16.974Z,3.13
2018-03-30T01:28:44.473Z,2.43
2018-03-30T01:31:11.984Z,1.50
2018-03-30T01:33:39.493Z,2.63
2018-03-30T01:36:06.985Z,1.60
2018-03-30T01:38:34.513Z,3.07
2018-03-30T01:41:02.003Z,1.33
2018-03-30T01:43:29.509Z,1.60
2018-03-30T01:45:57.003Z,1.77
2018-03-30T01:48:24.473Z,1.50
2018-03-30T01:50:51.999Z,2.33
2018-03-30T01:53:19.523Z,2.03
2018-03-30T01:55:47.047Z,1.20
2018-03-30T01:58:15.204Z,1.10
2018-03-30T02:00:42.727Z,4.20
2018-03-30T02:03:10.235Z,1.10
2018-03-30T02:05:37.709Z,0.97
2018-03-30T02:08:05.242Z,1.17
2018-03-30T02:10:32.741Z,0.93
2018-03-30T02:13:00.258Z,2.97
2018-03-30T02:15:27.775Z,1.10
2018-03-30T02:17:55.288Z,0.70
2018-03-30T02:20:22.792Z,1.10
2018-03-30T02:22:50.294Z,0.70
2018-03-30T02:25:17.798Z,0.70
2018-03-30T02:27:45.293Z,0.60
2018-03-30T02:30:13.574Z,1.70
2018-03-30T02:32:41.089Z,2.33
2018-03-30T02:35:09.374Z,1.43
2018-03-30T02:37:37.662Z,2.10
2018-03-30T02:40:05.930Z,1.90
2018-03-30T02:42:34.235Z,2.57
2018-03-30T02:45:01.720Z,1.40
2018-03-30T02:47:29.213Z,1.50
2018-03-30T02:49:56.719Z,2.50
2018-03-30T02:52:24.205Z,1.30
2018-03-30T02:54:51.721Z,2.60
2018-03-30T02:57:19.230Z,2.30
2018-03-30T02:59:46.725Z,1.50
2018-03-30T03:02:14.241Z,2.37
2018-03-30T03:04:41.719Z,1.27
2018-03-30T03:07:09.231Z,1.47
2018-03-30T03:09:36.725Z,2.53
2018-03-30T03:12:04.233Z,3.13
2018-03-30T03:14:31.768Z,1.07
2018-03-30T03:16:59.277Z,0.90
2018-03-30T03:19:26.774Z,1.60
2018-03-30T03:21:54.265Z,2.30
2018-03-30T03:24:21.779Z,1.10
2018-03-30T03:26:50.056Z,1.40
2018-03-30T03:29:17.555Z,2.63
2018-03-30T03:31:45.072Z,1.00
2018-03-30T03:34:12.565Z,1.10
2018-03-30T03:36:40.832Z,0.50
2018-03-30T03:39:09.110Z,1.00
2018-03-30T03:41:37.368Z,0.73
2018-03-30T03:44:06.389Z,0.97
2018-03-30T03:46:33.880Z,0.60
2018-03-30T03:49:01.423Z,1.83
2018-03-30T03:51:29.697Z,1.03
2018-03-30T03:53:57.202Z,0.83
2018-03-30T03:56:24.708Z,1.17
2018-03-30T03:58:52.212Z,0.90
2018-03-30T04:01:19.753Z,3.63
2018-03-30T04:03:47.245Z,1.57
2018-03-30T04:06:14.734Z,1.20
2018-03-30T04:08:42.237Z,0.90
2018-03-30T04:11:09.737Z,1.10
2018-03-30T04:13:37.250Z,0.77
2018-03-30T04:16:04.748Z,2.47
2018-03-30T04:18:32.238Z,1.40
2018-03-30T04:20:59.759Z,1.00
2018-03-30T04:23:27.266Z,1.83
2018-03-30T04:25:54.798Z,2.57
2018-03-30T04:28:22.297Z,1.97
2018-03-30T04:30:49.784Z,1.60
2018-03-30T04:33:17.282Z,2.20
2018-03-30T04:35:45.543Z,2.07
2018-03-30T04:38:13.838Z,1.70
2018-03-30T04:40:42.104Z,1.73
2018-03-30T04:43:09.604Z,1.77
2018-03-30T04:45:37.104Z,2.00
2018-03-30T04:48:04.606Z,2.07
2018-03-30T04:50:32.886Z,1.60
2018-03-30T04:53:01.154Z,1.83
2018-03-30T04:55:28.691Z,1.80
2018-03-30T04:57:56.202Z,3.67
2018-03-30T05:00:23.701Z,1.30
2018-03-30T05:02:51.200Z,2.97
2018-03-30T05:05:18.684Z,1.40
2018-03-30T05:07:46.202Z,2.80
2018-03-30T05:10:13.721Z,1.53
2018-03-30T05:12:41.260Z,2.60
2018-03-30T05:15:08.760Z,1.50
2018-03-30T05:17:36.264Z,3.97
2018-03-30T05:20:03.779Z,3.40
2018-03-30T05:22:31.286Z,1.87
2018-03-30T05:24:58.832Z,3.03
2018-03-30T05:27:26.348Z,3.90
2018-03-30T05:29:53.859Z,4.70
2018-03-30T05:32:21.389Z,3.50
2018-03-30T05:34:48.918Z,3.57
2018-03-30T05:37:16.441Z,8.50
2018-03-30T05:39:43.996Z,3.43
2018-03-30T05:42:12.217Z,2.40
2018-03-30T05:44:39.722Z,3.40
2018-03-30T05:47:07.233Z,4.10
2018-03-30T05:49:34.755Z,5.70
2018-03-30T05:52:02.248Z,3.07
2018-03-30T05:54:30.550Z,6.63
2018-03-30T05:56:58.054Z,1.60
2018-03-30T05:59:25.596Z,2.73
2018-03-30T06:01:53.090Z,2.77
2018-03-30T06:04:20.586Z,3.67
2018-03-30T06:06:48.132Z,3.23
2018-03-30T06:09:15.631Z,5.67
2018-03-30T06:11:43.112Z,1.27
2018-03-30T06:14:10.615Z,2.83
2018-03-30T06:16:38.110Z,1.60
2018-03-30T06:19:05.694Z,1.57
2018-03-30T06:21:33.129Z,1.97
2018-03-30T06:24:00.643Z,1.77
2018-03-30T06:26:28.140Z,1.50
2018-03-30T06:28:55.630Z,1.60
2018-03-30T06:31:23.148Z,1.60
2018-03-30T06:33:50.650Z,2.03
2018-03-30T06:36:18.166Z,6.83
2018-03-30T06:38:46.418Z,2.33
2018-03-30T06:41:13.906Z,2.03
2018-03-30T06:43:41.431Z,3.73
2018-03-30T06:46:08.929Z,1.80
2018-03-30T06:48:36.427Z,3.70
2018-03-30T06:51:03.913Z,1.90
2018-03-30T06:53:31.404Z,3.93
2018-03-30T06:55:58.933Z,1.90
2018-03-30T06:58:26.414Z,4.73
2018-03-30T07:00:53.925Z,1.97
2018-03-30T07:03:21.427Z,2.10
2018-03-30T07:05:48.950Z,6.17
2018-03-30T07:08:16.468Z,2.07
2018-03-30T07:10:43.972Z,1.90
2018-03-30T07:13:11.486Z,2.30
2018-03-30T07:15:38.984Z,1.87
2018-03-30T07:18:07.244Z,2.50
2018-03-30T07:20:34.759Z,2.90
2018-03-30T07:23:02.260Z,3.30
2018-03-30T07:25:29.792Z,2.20
2018-03-30T07:27:57.308Z,2.13
2018-03-30T07:30:25.557Z,1.83
2018-03-30T07:32:53.071Z,2.90
2018-03-30T07:35:20.551Z,1.53
2018-03-30T07:37:48.082Z,3.13
2018-03-30T07:40:16.104Z,2.40
2018-03-30T07:42:43.644Z,1.90
2018-03-30T07:45:11.221Z,3.63
2018-03-30T07:47:38.761Z,2.43
2018-03-30T07:50:07.048Z,2.63
2018-03-30T07:52:34.570Z,3.07
2018-03-30T07:55:02.078Z,3.27
2018-03-30T07:57:29.588Z,2.63
2018-03-30T07:59:57.094Z,2.47
2018-03-30T08:02:24.642Z,2.07
2018-03-30T08:04:52.139Z,2.50
2018-03-30T08:07:19.676Z,2.67
2018-03-30T08:09:47.180Z,2.37
2018-03-30T08:12:14.730Z,3.03
2018-03-30T08:14:42.285Z,2.33
2018-03-30T08:17:09.814Z,2.33
2018-03-30T08:19:38.107Z,3.20
2018-03-30T08:22:06.368Z,4.07
2018-03-30T08:24:33.904Z,4.10
2018-03-30T08:27:01.401Z,3.23
2018-03-30T08:29:28.915Z,3.93
2018-03-30T08:31:56.491Z,3.70
2018-03-30T08:34:23.986Z,5.43
2018-03-30T08:36:51.499Z,3.83
2018-03-30T08:39:18.988Z,3.80
2018-03-30T08:41:46.538Z,3.13
2018-03-30T08:44:14.019Z,4.30
2018-03-30T08:46:41.513Z,4.50
2018-03-30T08:49:09.801Z,4.17
2018-03-30T08:51:38.071Z,3.93
2018-03-30T08:54:06.388Z,3.50
2018-03-30T08:56:33.903Z,5.13
2018-03-30T08:59:01.403Z,4.27
2018-03-30T09:01:28.928Z,3.80
2018-03-30T09:03:56.434Z,4.40
2018-03-30T09:06:23.968Z,4.00
2018-03-30T09:08:52.251Z,2.83
2018-03-30T09:11:20.548Z,3.97
2018-03-30T09:13:48.043Z,3.90
2018-03-30T09:16:16.668Z,4.55
2018-03-30T09:18:44.187Z,4.17
2018-03-30T09:21:11.700Z,3.67
2018-03-30T09:23:39.198Z,3.27
2018-03-30T09:26:06.716Z,2.73
2018-03-30T09:28:34.273Z,2.67
2018-03-30T09:31:01.782Z,3.83
2018-03-30T09:33:29.325Z,4.73
2018-03-30T09:35:57.624Z,2.20
2018-03-30T09:38:25.142Z,3.70
2018-03-30T09:40:52.666Z,2.40
2018-03-30T09:43:20.156Z,3.50
2018-03-30T09:45:47.678Z,3.10
2018-03-30T09:48:15.170Z,2.93
2018-03-30T09:50:42.683Z,3.83
2018-03-30T09:53:10.987Z,2.43
2018-03-30T09:55:39.249Z,2.50
2018-03-30T09:58:07.521Z,2.93
2018-03-30T10:00:35.116Z,2.00
2018-03-30T10:03:04.563Z,2.13
2018-03-30T10:05:32.116Z,1.63
2018-03-30T10:07:59.659Z,3.10
2018-03-30T10:10:27.178Z,1.67
2018-03-30T10:12:54.699Z,1.23
2018-03-30T10:15:22.212Z,1.43
2018-03-30T10:17:49.734Z,4.40
2018-03-30T10:20:17.265Z,1.60
2018-03-30T10:22:44.760Z,1.40
2018-03-30T10:25:12.282Z,1.40
2018-03-30T10:27:39.832Z,1.57
2018-03-30T10:30:07.282Z,1.17
2018-03-30T10:32:34.795Z,1.40
2018-03-30T10:35:02.318Z,1.40
2018-03-30T10:37:30.687Z,1.20
2018-03-30T10:39:58.171Z,1.00
2018-03-30T10:42:26.480Z,2.23
2018-03-30T10:44:53.985Z,1.43
2018-03-30T10:47:21.521Z,1.10
2018-03-30T10:49:49.034Z,1.43
2018-03-30T10:52:16.555Z,1.57
2018-03-30T10:54:44.063Z,1.20
2018-03-30T10:57:11.579Z,1.40
2018-03-30T10:59:39.116Z,1.00
2018-03-30T11:02:06.635Z,1.07
2018-03-30T11:04:34.157Z,1.20
2018-03-30T11:07:01.653Z,1.43
2018-03-30T11:09:29.188Z,1.10
2018-03-30T11:11:56.700Z,1.30
2018-03-30T11:14:24.215Z,0.80
2018-03-30T11:16:51.727Z,1.37
2018-03-30T11:19:19.289Z,0.80
2018-03-30T11:21:46.776Z,1.37
2018-03-30T11:24:15.060Z,0.83
2018-03-30T11:26:42.604Z,1.00
2018-03-30T11:29:10.125Z,0.70
2018-03-30T11:31:37.638Z,0.90
2018-03-30T11:34:05.927Z,0.67
2018-03-30T11:36:34.244Z,0.70
2018-03-30T11:39:01.770Z,0.80
2018-03-30T11:41:29.264Z,0.37
2018-03-30T11:43:56.786Z,0.70
2018-03-30T11:46:24.394Z,0.40
2018-03-30T11:48:51.908Z,0.77
2018-03-30T11:51:19.410Z,0.50
2018-03-30T11:53:46.933Z,0.60
2018-03-30T11:56:14.460Z,1.87
2018-03-30T11:58:41.969Z,0.23
2018-03-30T12:01:10.287Z,0.37
2018-03-30T12:03:37.812Z,0.40
2018-03-30T12:06:05.372Z,0.57
2018-03-30T12:08:33.652Z,0.40
2018-03-30T12:11:01.185Z,1.40
2018-03-30T12:13:28.707Z,0.53
2018-03-30T12:15:56.190Z,0.70
2018-03-30T12:18:23.702Z,0.40
2018-03-30T12:20:51.206Z,0.50
2018-03-30T12:23:18.716Z,0.63
2018-03-30T12:25:46.232Z,0.53
2018-03-30T12:28:13.732Z,0.30
2018-03-30T12:30:42.042Z,0.30
2018-03-30T12:33:10.325Z,0.17
2018-03-30T12:35:37.844Z,0.30
2018-03-30T12:38:05.433Z,0.40
2018-03-30T12:40:33.095Z,0.30
2018-03-30T12:43:00.616Z,0.57
2018-03-30T12:45:28.127Z,0.20
2018-03-30T12:47:55.624Z,0.80
2018-03-30T12:50:23.991Z,0.30
2018-03-30T12:52:51.489Z,0.20
2018-03-30T12:55:19.010Z,0.30
2018-03-30T12:57:46.573Z,0.43
2018-03-30T13:00:14.070Z,1.50
2018-03-30T13:02:41.601Z,0.47
2018-03-30T13:05:09.137Z,0.30
2018-03-30T13:07:36.643Z,0.30
2018-03-30T13:10:04.923Z,1.40
2018-03-30T13:12:32.429Z,0.50
2018-03-30T13:14:59.960Z,0.40
2018-03-30T13:17:27.484Z,0.30
2018-03-30T13:19:55.006Z,0.13
2018-03-30T13:22:22.502Z,1.90
2018-03-30T13:24:49.989Z,1.50
2018-03-30T13:27:17.498Z,0.30
2018-03-30T13:29:45.003Z,0.30
2018-03-30T13:32:12.536Z,0.30
2018-03-30T13:34:40.023Z,0.50
2018-03-30T13:37:07.538Z,0.77
2018-03-30T13:39:35.073Z,0.10
2018-03-30T13:42:03.354Z,0.90
2018-03-30T13:44:30.895Z,0.40
2018-03-30T13:46:58.397Z,0.30
2018-03-30T13:49:26.695Z,0.40
2018-03-30T13:54:53.352Z,0.30
2018-03-30T13:57:21.606Z,0.20
2018-03-30T13:59:53.725Z,0.20
2018-03-30T14:02:27.638Z,0.83
2018-03-30T14:05:01.054Z,0.20
2018-03-30T14:07:35.505Z,0.53
2018-03-30T14:10:03.924Z,0.10
2018-03-30T14:12:34.299Z,0.10
2018-03-30T14:15:01.815Z,0.30
2018-03-30T14:17:31.282Z,0.10
2018-03-30T14:22:58.330Z,0.17
2018-03-30T14:25:36.549Z,0.10
2018-03-30T14:28:08.600Z,0.30
2018-03-30T14:30:37.003Z,0.40
2018-03-30T14:33:10.818Z,0.27
2018-03-30T14:35:43.750Z,0.20
2018-03-30T14:38:16.643Z,0.40
2018-03-30T14:40:44.167Z,0.10
2018-03-30T14:43:12.604Z,0.10
2018-03-30T14:45:41.714Z,0.10
2018-03-30T14:48:25.799Z,0.10
2018-03-30T14:53:52.849Z,1.37
2018-03-30T14:56:37.767Z,0.10
2018-03-30T14:59:08.832Z,0.10
2018-03-30T15:01:46.286Z,0.07
2018-03-30T15:04:18.659Z,0.20
2018-03-30T15:06:48.807Z,0.63
2018-03-30T15:09:17.145Z,0.33
2018-03-30T15:11:58.238Z,0.57
2018-03-30T15:14:27.412Z,0.53
2018-03-30T15:17:06.385Z,2.77
2018-03-30T15:19:41.356Z,0.40
2018-03-30T15:25:09.336Z,0.20
2018-03-30T15:27:39.464Z,0.47
2018-03-30T15:30:13.668Z,0.70
2018-03-30T15:32:58.933Z,1.03
2018-03-30T15:35:27.261Z,1.33
2018-03-30T15:37:54.787Z,0.27
2018-03-30T15:40:24.087Z,0.40
2018-03-30T15:43:01.534Z,1.43
2018-03-30T15:48:26.681Z,0.20
2018-03-30T15:51:13.832Z,0.50
2018-03-30T15:53:40.869Z,0.30
2018-03-30T15:56:09.297Z,0.33
2018-03-30T15:58:37.632Z,0.30
2018-03-30T16:01:05.169Z,0.67
2018-03-30T16:03:32.679Z,1.27
2018-03-30T16:06:00.214Z,0.50
2018-03-30T16:08:27.735Z,0.53
2018-03-30T16:11:02.761Z,0.70
2018-03-30T16:13:30.282Z,0.77
2018-03-30T16:15:57.900Z,1.37
2018-03-30T16:18:25.449Z,0.60
2018-03-30T16:20:52.453Z,5.17
2018-03-30T16:23:19.458Z,2.43
2018-03-30T16:25:46.467Z,1.57
2018-03-30T16:28:13.469Z,0.70
2018-03-30T16:30:41.242Z,1.03
2018-03-30T16:33:08.241Z,3.73
2018-03-30T16:35:35.254Z,3.53
2018-03-30T16:38:03.011Z,3.53
2018-03-30T16:40:30.029Z,4.23
2018-03-30T16:42:57.029Z,4.17
2018-03-30T16:45:24.819Z,3.93
2018-03-30T16:47:51.831Z,3.93
2018-03-30T16:50:18.832Z,5.33
2018-03-30T16:52:45.840Z,4.93
2018-03-30T16:55:13.609Z,4.03
2018-03-30T16:57:40.631Z,3.97
2018-03-30T17:00:07.683Z,5.43
2018-03-30T17:02:35.466Z,4.27
2018-03-30T17:05:02.479Z,4.97
2018-03-30T17:07:29.521Z,5.47
2018-03-30T17:09:56.530Z,9.13
2018-03-30T17:12:23.536Z,7.40
2018-03-30T17:14:50.551Z,6.13
2018-03-30T17:17:17.554Z,5.93
2018-03-30T17:22:14.928Z,8.03
2018-03-30T17:24:41.909Z,6.70
2018-03-30T17:27:08.926Z,4.53
2018-03-30T17:29:35.917Z,5.07
2018-03-30T17:32:02.931Z,5.03
2018-03-30T17:34:29.917Z,7.93
2018-03-30T17:36:56.910Z,5.07
2018-03-30T17:39:23.927Z,9.87
2018-03-30T17:41:50.972Z,6.77
2018-03-30T17:44:17.985Z,7.30
2018-03-30T17:46:44.988Z,5.87
2018-03-30T17:49:12.753Z,8.23
2018-03-30T17:51:39.797Z,5.37
2018-03-30T17:54:06.788Z,7.60
2018-03-30T17:56:33.778Z,5.77
2018-03-30T17:59:00.796Z,2.20
2018-03-30T18:01:27.790Z,2.37
2018-03-30T18:03:54.779Z,2.50
2018-03-30T18:06:22.562Z,3.23
2018-03-30T18:08:49.569Z,2.23
2018-03-30T18:11:16.584Z,2.63
2018-03-30T18:13:43.577Z,5.30
2018-03-30T18:16:10.588Z,2.40
2018-03-30T18:18:37.612Z,3.93
2018-03-30T18:21:04.643Z,4.67
2018-03-30T18:23:31.647Z,2.57
2018-03-30T18:25:58.676Z,2.40
2018-03-30T18:28:25.701Z,1.73
2018-03-30T18:30:52.737Z,1.50
2018-03-30T18:33:20.503Z,3.53
2018-03-30T18:35:47.501Z,3.27
2018-03-30T18:38:14.520Z,3.87
2018-03-30T18:40:41.541Z,4.07
2018-03-30T18:43:08.543Z,4.37
2018-03-30T18:45:35.555Z,2.07
2018-03-30T18:48:02.559Z,1.43
2018-03-30T18:50:29.593Z,5.93
2018-03-30T18:52:57.354Z,4.33
2018-03-30T18:55:24.359Z,1.67
2018-03-30T18:57:51.342Z,2.73
2018-03-30T19:00:18.356Z,0.93
2018-03-30T19:02:45.376Z,1.00
2018-03-30T19:05:13.131Z,1.80
2018-03-30T19:07:40.923Z,0.30
2018-03-30T19:10:07.941Z,3.17
2018-03-30T19:12:34.956Z,0.20
2018-03-30T19:15:01.983Z,0.30
2018-03-30T19:17:28.999Z,0.07
2018-03-30T19:19:56.000Z,0.23
2018-03-30T19:22:23.016Z,0.20
2018-03-30T19:24:50.034Z,0.13
2018-03-30T19:27:17.053Z,0.27
2018-03-30T19:29:44.058Z,0.23
2018-03-30T19:32:11.085Z,1.90
2018-03-30T19:34:38.109Z,1.13
2018-03-30T19:37:05.118Z,1.67
2018-03-30T19:39:32.145Z,1.17
2018-03-30T19:41:59.140Z,2.30
2018-03-30T19:44:26.179Z,1.17
2018-03-30T19:46:53.186Z,1.30
2018-03-30T19:49:20.194Z,1.40
2018-03-30T19:51:47.214Z,1.53
2018-03-30T19:54:14.218Z,1.50
2018-03-30T19:56:41.236Z,1.00
2018-03-30T19:59:09.024Z,0.97
2018-03-30T20:01:36.050Z,1.10
2018-03-30T20:04:03.058Z,0.70
2018-03-30T20:06:30.054Z,0.77
2018-03-30T20:08:57.063Z,1.00
2018-03-30T20:11:24.060Z,0.93
2018-03-30T20:13:51.066Z,0.30
2018-03-30T20:16:18.090Z,0.50
2018-03-30T20:18:45.104Z,0.30
2018-03-30T20:21:12.100Z,0.70
2018-03-30T20:23:39.097Z,0.30
2018-03-30T20:26:06.113Z,0.60
2018-03-30T20:28:33.097Z,1.17
2018-03-30T20:31:00.118Z,1.87
2018-03-30T20:33:27.118Z,0.70
2018-03-30T20:35:54.133Z,2.40
2018-03-30T20:38:21.173Z,2.00
2018-03-30T20:40:48.173Z,1.60
2018-03-30T20:43:15.201Z,1.33
2018-03-30T20:45:42.206Z,0.80
2018-03-30T20:48:09.971Z,0.63
2018-03-30T20:50:36.995Z,1.80
2018-03-30T20:53:04.001Z,1.13
2018-03-30T20:55:31.016Z,0.63
2018-03-30T20:57:58.793Z,0.63
2018-03-30T21:00:26.555Z,1.03
2018-03-30T21:02:53.579Z,0.80
2018-03-30T21:05:20.571Z,1.30
2018-03-30T21:07:48.347Z,0.60
2018-03-30T21:10:15.369Z,1.13
2018-03-30T21:12:42.396Z,1.10
2018-03-30T21:15:09.394Z,0.60
2018-03-30T21:17:36.385Z,1.07
2018-03-30T21:20:03.395Z,1.60
2018-03-30T21:22:31.151Z,1.47
2018-03-30T21:24:58.177Z,0.60
2018-03-30T21:27:25.177Z,1.23
2018-03-30T21:29:52.198Z,1.03
2018-03-30T21:32:19.213Z,0.70
2018-03-30T21:34:46.231Z,0.47
2018-03-30T21:37:13.241Z,0.80
2018-03-30T21:39:40.244Z,0.30
2018-03-30T21:42:07.260Z,0.77
2018-03-30T21:44:34.257Z,0.80
2018-03-30T21:47:01.258Z,0.60
2018-03-30T21:49:28.275Z,0.60
2018-03-30T21:51:55.292Z,1.40
2018-03-30T21:54:22.307Z,3.97
2018-03-30T21:56:49.301Z,1.00
2018-03-30T21:59:16.299Z,1.33
2018-03-30T22:01:43.314Z,0.87
2018-03-30T22:04:10.346Z,1.17
2018-03-30T22:06:37.350Z,1.00
2018-03-30T22:09:04.345Z,0.70
2018-03-30T22:11:32.108Z,0.60
2018-03-30T22:13:59.134Z,0.63
2018-03-30T22:16:26.134Z,0.50
2018-03-30T22:18:53.146Z,0.73
2018-03-30T22:21:20.143Z,0.57
2018-03-30T22:23:47.138Z,0.60
2018-03-30T22:26:14.154Z,0.50
2018-03-30T22:28:41.926Z,0.57
2018-03-30T22:31:08.932Z,0.13
2018-03-30T22:33:35.924Z,0.50
2018-03-30T22:36:02.917Z,0.50
2018-03-30T22:38:29.934Z,1.10
2018-03-30T22:40:56.922Z,1.83
2018-03-30T22:43:23.925Z,0.93
2018-03-30T22:45:50.917Z,0.93
2018-03-30T22:48:17.911Z,1.00
2018-03-30T22:50:45.701Z,1.93
2018-03-30T22:53:12.694Z,4.00
2018-03-30T22:55:39.707Z,1.60
2018-03-30T22:58:06.701Z,2.23
2018-03-30T23:00:33.698Z,2.00
2018-03-30T23:03:00.717Z,3.57
2018-03-30T23:05:27.719Z,4.70
2018-03-30T23:07:54.734Z,2.03
2018-03-30T23:10:21.737Z,1.60
2018-03-30T23:12:48.769Z,1.90
2018-03-30T23:15:15.775Z,2.00
2018-03-30T23:17:42.770Z,1.73
2018-03-30T23:20:09.780Z,1.70
2018-03-30T23:22:36.786Z,1.43
2018-03-30T23:25:03.789Z,1.50
2018-03-30T23:27:31.573Z,1.20
2018-03-30T23:29:58.575Z,2.03
2018-03-30T23:32:25.575Z,2.60
2018-03-30T23:34:53.346Z,2.70
2018-03-30T23:37:21.127Z,2.83
2018-03-30T23:39:48.124Z,1.80
2018-03-30T23:42:15.158Z,1.93
2018-03-30T23:44:42.150Z,2.00
2018-03-30T23:47:09.138Z,1.83
2018-03-30T23:49:36.169Z,2.73
2018-03-30T23:52:03.159Z,2.33
2018-03-30T23:54:30.165Z,2.33
2018-03-30T23:56:57.924Z,2.67
2018-03-30T23:59:24.939Z,1.47
